sensor_id;sensor_type;location;lat;lon;timestamp;P1;durP1;ratioP1;P2;durP2;ratioP2
11125;SDS011;5617;54.046;10.676;2024-01-15T00:00:58;5.00;;;0.50;;
11125;SDS011;5617;54.046;10.676;2024-01-15T00:03:06;6.13;;;1.20;;
11125;SDS011;5617;54.046;10.676;2024-01-15T00:05:15;4.17;;;1.07;;
11125;SDS011;5617;54.046;10.676;2024-01-15T00:07:24;5.03;;;1.00;;
11125;SDS011;5617;54.046;10.676;2024-01-15T00:09:34;2.60;;;0.80;;
11125;SDS011;5617;54.046;10.676;2024-01-15T00:11:45;3.70;;;1.07;;
11125;SDS011;5617;54.046;10.676;2024-01-15T00:13:53;6.63;;;1.27;;
11125;SDS011;5617;54.046;10.676;2024-01-15T00:16:02;4.00;;;1.10;;
11125;SDS011;5617;54.046;10.676;2024-01-15T00:18:11;3.47;;;0.90;;
11125;SDS011;5617;54.046;10.676;2024-01-15T00:20:20;5.53;;;1.20;;
11125;SDS011;5617;54.046;10.676;2024-01-15T00:22:28;5.47;;;1.23;;
11125;SDS011;5617;54.046;10.676;2024-01-15T00:24:37;4.27;;;1.03;;
11125;SDS011;5617;54.046;10.676;2024-01-15T00:26:47;4.47;;;1.20;;
11125;SDS011;5617;54.046;10.676;2024-01-15T00:28:58;6.47;;;1.70;;
11125;SDS011;5617;54.046;10.676;2024-01-15T00:31:07;4.87;;;1.33;;
11125;SDS011;5617;54.046;10.676;2024-01-15T00:33:16;4.90;;;1.30;;
11125;SDS011;5617;54.046;10.676;2024-01-15T00:35:24;4.00;;;1.10;;
11125;SDS011;5617;54.046;10.676;2024-01-15T00:37:33;4.83;;;1.50;;
11125;SDS011;5617;54.046;10.676;2024-01-15T00:39:41;1.23;;;0.70;;
11125;SDS011;5617;54.046;10.676;2024-01-15T00:41:51;4.93;;;1.40;;
11125;SDS011;5617;54.046;10.676;2024-01-15T00:43:59;5.00;;;1.30;;
11125;SDS011;5617;54.046;10.676;2024-01-15T00:46:07;3.37;;;0.70;;
11125;SDS011;5617;54.046;10.676;2024-01-15T00:48:16;3.27;;;0.97;;
11125;SDS011;5617;54.046;10.676;2024-01-15T00:50:25;4.37;;;1.50;;
11125;SDS011;5617;54.046;10.676;2024-01-15T00:52:33;3.87;;;1.00;;
11125;SDS011;5617;54.046;10.676;2024-01-15T00:54:41;6.53;;;1.00;;
11125;SDS011;5617;54.046;10.676;2024-01-15T00:56:51;5.90;;;1.40;;
11125;SDS011;5617;54.046;10.676;2024-01-15T00:59:00;4.90;;;1.00;;
11125;SDS011;5617;54.046;10.676;2024-01-15T01:01:08;6.97;;;1.23;;
11125;SDS011;5617;54.046;10.676;2024-01-15T01:03:17;5.37;;;1.40;;
11125;SDS011;5617;54.046;10.676;2024-01-15T01:05:25;3.60;;;1.37;;
11125;SDS011;5617;54.046;10.676;2024-01-15T01:07:33;4.00;;;1.53;;
11125;SDS011;5617;54.046;10.676;2024-01-15T01:09:41;4.63;;;1.73;;
11125;SDS011;5617;54.046;10.676;2024-01-15T01:11:51;1.83;;;1.37;;
11125;SDS011;5617;54.046;10.676;2024-01-15T01:14:01;4.27;;;1.30;;
11125;SDS011;5617;54.046;10.676;2024-01-15T01:16:10;7.10;;;1.43;;
11125;SDS011;5617;54.046;10.676;2024-01-15T01:18:19;3.97;;;0.77;;
11125;SDS011;5617;54.046;10.676;2024-01-15T01:20:28;1.90;;;0.93;;
11125;SDS011;5617;54.046;10.676;2024-01-15T01:22:36;3.33;;;1.07;;
11125;SDS011;5617;54.046;10.676;2024-01-15T01:24:44;2.93;;;0.87;;
11125;SDS011;5617;54.046;10.676;2024-01-15T01:26:54;4.93;;;1.77;;
11125;SDS011;5617;54.046;10.676;2024-01-15T01:29:02;2.40;;;0.97;;
11125;SDS011;5617;54.046;10.676;2024-01-15T01:31:11;2.63;;;1.03;;
11125;SDS011;5617;54.046;10.676;2024-01-15T01:33:19;3.70;;;1.23;;
11125;SDS011;5617;54.046;10.676;2024-01-15T01:35:28;2.50;;;0.80;;
11125;SDS011;5617;54.046;10.676;2024-01-15T01:37:39;2.43;;;0.93;;
11125;SDS011;5617;54.046;10.676;2024-01-15T01:39:47;3.03;;;1.30;;
11125;SDS011;5617;54.046;10.676;2024-01-15T01:41:56;5.47;;;1.50;;
11125;SDS011;5617;54.046;10.676;2024-01-15T01:44:04;7.17;;;1.50;;
11125;SDS011;5617;54.046;10.676;2024-01-15T01:46:12;6.17;;;1.43;;
11125;SDS011;5617;54.046;10.676;2024-01-15T01:48:21;4.73;;;1.57;;
11125;SDS011;5617;54.046;10.676;2024-01-15T01:50:29;4.10;;;1.10;;
11125;SDS011;5617;54.046;10.676;2024-01-15T01:52:38;5.60;;;1.50;;
11125;SDS011;5617;54.046;10.676;2024-01-15T01:54:49;4.60;;;1.40;;
11125;SDS011;5617;54.046;10.676;2024-01-15T01:57:00;5.00;;;1.47;;
11125;SDS011;5617;54.046;10.676;2024-01-15T01:59:11;3.93;;;1.00;;
11125;SDS011;5617;54.046;10.676;2024-01-15T02:01:20;5.73;;;1.70;;
11125;SDS011;5617;54.046;10.676;2024-01-15T02:03:29;4.57;;;1.30;;
11125;SDS011;5617;54.046;10.676;2024-01-15T02:05:38;6.80;;;1.40;;
11125;SDS011;5617;54.046;10.676;2024-01-15T02:07:48;4.33;;;1.30;;
11125;SDS011;5617;54.046;10.676;2024-01-15T02:09:56;4.47;;;1.40;;
11125;SDS011;5617;54.046;10.676;2024-01-15T02:12:06;6.77;;;1.63;;
11125;SDS011;5617;54.046;10.676;2024-01-15T02:14:15;8.73;;;2.07;;
11125;SDS011;5617;54.046;10.676;2024-01-15T02:16:24;4.67;;;1.00;;
11125;SDS011;5617;54.046;10.676;2024-01-15T02:18:39;4.27;;;1.50;;
11125;SDS011;5617;54.046;10.676;2024-01-15T02:20:48;3.50;;;1.27;;
11125;SDS011;5617;54.046;10.676;2024-01-15T02:23:03;6.47;;;1.80;;
11125;SDS011;5617;54.046;10.676;2024-01-15T02:25:16;4.57;;;1.33;;
11125;SDS011;5617;54.046;10.676;2024-01-15T02:27:24;5.67;;;1.03;;
11125;SDS011;5617;54.046;10.676;2024-01-15T02:29:33;7.70;;;1.60;;
11125;SDS011;5617;54.046;10.676;2024-01-15T02:31:41;6.80;;;1.27;;
11125;SDS011;5617;54.046;10.676;2024-01-15T02:33:49;8.03;;;2.07;;
11125;SDS011;5617;54.046;10.676;2024-01-15T02:35:58;9.70;;;1.47;;
11125;SDS011;5617;54.046;10.676;2024-01-15T02:38:07;9.90;;;2.50;;
11125;SDS011;5617;54.046;10.676;2024-01-15T02:40:16;7.00;;;2.40;;
11125;SDS011;5617;54.046;10.676;2024-01-15T02:42:25;5.77;;;1.60;;
11125;SDS011;5617;54.046;10.676;2024-01-15T02:44:35;3.53;;;1.30;;
11125;SDS011;5617;54.046;10.676;2024-01-15T02:46:43;8.17;;;1.97;;
11125;SDS011;5617;54.046;10.676;2024-01-15T02:48:52;10.77;;;3.73;;
11125;SDS011;5617;54.046;10.676;2024-01-15T02:51:00;9.63;;;2.60;;
11125;SDS011;5617;54.046;10.676;2024-01-15T02:53:10;7.63;;;1.73;;
11125;SDS011;5617;54.046;10.676;2024-01-15T02:55:18;6.90;;;1.60;;
11125;SDS011;5617;54.046;10.676;2024-01-15T02:57:27;4.63;;;1.50;;
11125;SDS011;5617;54.046;10.676;2024-01-15T02:59:34;3.80;;;0.80;;
11125;SDS011;5617;54.046;10.676;2024-01-15T03:01:42;4.77;;;1.33;;
11125;SDS011;5617;54.046;10.676;2024-01-15T03:03:50;7.90;;;1.57;;
11125;SDS011;5617;54.046;10.676;2024-01-15T03:05:59;5.77;;;1.30;;
11125;SDS011;5617;54.046;10.676;2024-01-15T03:08:11;6.67;;;1.60;;
11125;SDS011;5617;54.046;10.676;2024-01-15T03:10:19;9.63;;;1.90;;
11125;SDS011;5617;54.046;10.676;2024-01-15T03:12:27;5.63;;;1.37;;
11125;SDS011;5617;54.046;10.676;2024-01-15T03:14:35;5.53;;;1.80;;
11125;SDS011;5617;54.046;10.676;2024-01-15T03:16:44;3.20;;;0.97;;
11125;SDS011;5617;54.046;10.676;2024-01-15T03:18:52;7.03;;;1.43;;
11125;SDS011;5617;54.046;10.676;2024-01-15T03:21:01;4.60;;;1.20;;
11125;SDS011;5617;54.046;10.676;2024-01-15T03:23:10;4.83;;;1.27;;
11125;SDS011;5617;54.046;10.676;2024-01-15T03:25:19;3.93;;;1.00;;
11125;SDS011;5617;54.046;10.676;2024-01-15T03:27:27;2.60;;;0.80;;
11125;SDS011;5617;54.046;10.676;2024-01-15T03:29:35;3.83;;;1.10;;
11125;SDS011;5617;54.046;10.676;2024-01-15T03:31:43;2.00;;;0.97;;
11125;SDS011;5617;54.046;10.676;2024-01-15T03:33:50;9.23;;;1.83;;
11125;SDS011;5617;54.046;10.676;2024-01-15T03:35:59;6.17;;;1.57;;
11125;SDS011;5617;54.046;10.676;2024-01-15T03:38:07;6.97;;;1.47;;
11125;SDS011;5617;54.046;10.676;2024-01-15T03:40:17;7.77;;;1.30;;
11125;SDS011;5617;54.046;10.676;2024-01-15T03:42:29;4.97;;;1.47;;
11125;SDS011;5617;54.046;10.676;2024-01-15T03:44:38;6.87;;;1.70;;
11125;SDS011;5617;54.046;10.676;2024-01-15T03:46:46;7.07;;;1.60;;
11125;SDS011;5617;54.046;10.676;2024-01-15T03:48:55;9.80;;;1.80;;
11125;SDS011;5617;54.046;10.676;2024-01-15T03:51:03;4.13;;;1.40;;
11125;SDS011;5617;54.046;10.676;2024-01-15T03:53:11;6.07;;;1.43;;
11125;SDS011;5617;54.046;10.676;2024-01-15T03:55:20;4.10;;;1.13;;
11125;SDS011;5617;54.046;10.676;2024-01-15T03:57:29;4.50;;;0.83;;
11125;SDS011;5617;54.046;10.676;2024-01-15T03:59:37;3.87;;;1.20;;
11125;SDS011;5617;54.046;10.676;2024-01-15T04:01:48;3.20;;;0.77;;
11125;SDS011;5617;54.046;10.676;2024-01-15T04:03:57;4.70;;;1.30;;
11125;SDS011;5617;54.046;10.676;2024-01-15T04:06:05;5.47;;;1.10;;
11125;SDS011;5617;54.046;10.676;2024-01-15T04:08:14;2.07;;;0.90;;
11125;SDS011;5617;54.046;10.676;2024-01-15T04:10:24;5.77;;;1.40;;
11125;SDS011;5617;54.046;10.676;2024-01-15T04:12:32;3.00;;;1.10;;
11125;SDS011;5617;54.046;10.676;2024-01-15T04:14:40;2.83;;;0.67;;
11125;SDS011;5617;54.046;10.676;2024-01-15T04:16:48;3.97;;;1.63;;
11125;SDS011;5617;54.046;10.676;2024-01-15T04:18:57;4.17;;;1.73;;
11125;SDS011;5617;54.046;10.676;2024-01-15T04:21:05;4.67;;;0.90;;
11125;SDS011;5617;54.046;10.676;2024-01-15T04:23:14;7.10;;;1.00;;
11125;SDS011;5617;54.046;10.676;2024-01-15T04:25:23;5.07;;;1.40;;
11125;SDS011;5617;54.046;10.676;2024-01-15T04:27:32;4.63;;;1.10;;
11125;SDS011;5617;54.046;10.676;2024-01-15T04:29:40;2.73;;;0.80;;
11125;SDS011;5617;54.046;10.676;2024-01-15T04:31:47;4.97;;;1.07;;
11125;SDS011;5617;54.046;10.676;2024-01-15T04:33:56;3.40;;;1.07;;
11125;SDS011;5617;54.046;10.676;2024-01-15T04:36:05;6.70;;;1.40;;
11125;SDS011;5617;54.046;10.676;2024-01-15T04:38:13;3.37;;;0.93;;
11125;SDS011;5617;54.046;10.676;2024-01-15T04:40:21;7.03;;;1.40;;
11125;SDS011;5617;54.046;10.676;2024-01-15T04:42:30;3.23;;;1.00;;
11125;SDS011;5617;54.046;10.676;2024-01-15T04:44:38;7.63;;;1.20;;
11125;SDS011;5617;54.046;10.676;2024-01-15T04:46:47;6.20;;;1.20;;
11125;SDS011;5617;54.046;10.676;2024-01-15T04:48:55;7.50;;;1.30;;
11125;SDS011;5617;54.046;10.676;2024-01-15T04:51:04;10.70;;;1.50;;
11125;SDS011;5617;54.046;10.676;2024-01-15T04:53:13;3.47;;;0.97;;
11125;SDS011;5617;54.046;10.676;2024-01-15T04:55:21;4.03;;;1.00;;
11125;SDS011;5617;54.046;10.676;2024-01-15T04:57:30;4.30;;;1.33;;
11125;SDS011;5617;54.046;10.676;2024-01-15T04:59:38;8.63;;;1.30;;
11125;SDS011;5617;54.046;10.676;2024-01-15T05:01:47;4.77;;;1.50;;
11125;SDS011;5617;54.046;10.676;2024-01-15T05:03:58;6.30;;;1.53;;
11125;SDS011;5617;54.046;10.676;2024-01-15T05:06:06;5.57;;;1.70;;
11125;SDS011;5617;54.046;10.676;2024-01-15T05:08:15;5.57;;;1.50;;
11125;SDS011;5617;54.046;10.676;2024-01-15T05:10:24;6.33;;;1.20;;
11125;SDS011;5617;54.046;10.676;2024-01-15T05:12:32;3.70;;;1.13;;
11125;SDS011;5617;54.046;10.676;2024-01-15T05:14:41;8.40;;;1.63;;
11125;SDS011;5617;54.046;10.676;2024-01-15T05:16:49;5.10;;;1.30;;
11125;SDS011;5617;54.046;10.676;2024-01-15T05:18:58;6.70;;;1.73;;
11125;SDS011;5617;54.046;10.676;2024-01-15T05:21:09;0.70;;;0.50;;
11125;SDS011;5617;54.046;10.676;2024-01-15T05:23:20;7.27;;;1.47;;
11125;SDS011;5617;54.046;10.676;2024-01-15T05:25:30;8.63;;;1.60;;
11125;SDS011;5617;54.046;10.676;2024-01-15T05:27:45;2.83;;;0.87;;
11125;SDS011;5617;54.046;10.676;2024-01-15T05:29:53;2.07;;;1.03;;
11125;SDS011;5617;54.046;10.676;2024-01-15T05:32:01;9.50;;;1.83;;
11125;SDS011;5617;54.046;10.676;2024-01-15T05:34:10;8.63;;;1.80;;
11125;SDS011;5617;54.046;10.676;2024-01-15T05:36:18;2.23;;;1.00;;
11125;SDS011;5617;54.046;10.676;2024-01-15T05:38:27;2.63;;;0.90;;
11125;SDS011;5617;54.046;10.676;2024-01-15T05:40:36;6.70;;;1.50;;
11125;SDS011;5617;54.046;10.676;2024-01-15T05:42:45;5.27;;;1.50;;
11125;SDS011;5617;54.046;10.676;2024-01-15T05:44:54;5.40;;;1.40;;
11125;SDS011;5617;54.046;10.676;2024-01-15T05:47:03;7.03;;;1.57;;
11125;SDS011;5617;54.046;10.676;2024-01-15T05:49:11;6.67;;;1.47;;
11125;SDS011;5617;54.046;10.676;2024-01-15T05:51:21;8.07;;;1.83;;
11125;SDS011;5617;54.046;10.676;2024-01-15T05:53:29;8.07;;;1.90;;
11125;SDS011;5617;54.046;10.676;2024-01-15T05:55:39;8.17;;;1.70;;
11125;SDS011;5617;54.046;10.676;2024-01-15T05:57:47;8.10;;;1.80;;
11125;SDS011;5617;54.046;10.676;2024-01-15T05:59:56;4.30;;;0.90;;
11125;SDS011;5617;54.046;10.676;2024-01-15T06:02:05;5.87;;;1.20;;
11125;SDS011;5617;54.046;10.676;2024-01-15T06:04:13;12.20;;;1.80;;
11125;SDS011;5617;54.046;10.676;2024-01-15T06:06:22;7.30;;;1.90;;
11125;SDS011;5617;54.046;10.676;2024-01-15T06:08:32;7.27;;;1.77;;
11125;SDS011;5617;54.046;10.676;2024-01-15T06:10:41;8.63;;;2.10;;
11125;SDS011;5617;54.046;10.676;2024-01-15T06:12:50;5.77;;;1.20;;
11125;SDS011;5617;54.046;10.676;2024-01-15T06:14:58;8.90;;;1.83;;
11125;SDS011;5617;54.046;10.676;2024-01-15T06:17:07;8.47;;;1.50;;
11125;SDS011;5617;54.046;10.676;2024-01-15T06:19:15;5.60;;;1.17;;
11125;SDS011;5617;54.046;10.676;2024-01-15T06:21:22;8.03;;;1.77;;
11125;SDS011;5617;54.046;10.676;2024-01-15T06:23:31;4.73;;;1.13;;
11125;SDS011;5617;54.046;10.676;2024-01-15T06:25:39;8.33;;;1.80;;
11125;SDS011;5617;54.046;10.676;2024-01-15T06:27:48;6.90;;;1.63;;
11125;SDS011;5617;54.046;10.676;2024-01-15T06:30:00;7.57;;;1.57;;
11125;SDS011;5617;54.046;10.676;2024-01-15T06:32:09;9.67;;;1.50;;
11125;SDS011;5617;54.046;10.676;2024-01-15T06:34:17;12.07;;;2.20;;
11125;SDS011;5617;54.046;10.676;2024-01-15T06:36:26;8.20;;;1.60;;
11125;SDS011;5617;54.046;10.676;2024-01-15T06:38:34;8.70;;;1.70;;
11125;SDS011;5617;54.046;10.676;2024-01-15T06:40:42;6.70;;;1.90;;
11125;SDS011;5617;54.046;10.676;2024-01-15T06:42:55;9.37;;;1.90;;
11125;SDS011;5617;54.046;10.676;2024-01-15T06:45:04;6.57;;;1.30;;
11125;SDS011;5617;54.046;10.676;2024-01-15T06:47:12;7.23;;;1.60;;
11125;SDS011;5617;54.046;10.676;2024-01-15T06:49:21;5.97;;;1.70;;
11125;SDS011;5617;54.046;10.676;2024-01-15T06:51:30;7.77;;;1.77;;
11125;SDS011;5617;54.046;10.676;2024-01-15T06:53:40;8.03;;;1.87;;
11125;SDS011;5617;54.046;10.676;2024-01-15T06:55:48;8.17;;;2.07;;
11125;SDS011;5617;54.046;10.676;2024-01-15T06:57:59;5.10;;;1.50;;
11125;SDS011;5617;54.046;10.676;2024-01-15T07:00:07;10.90;;;2.33;;
11125;SDS011;5617;54.046;10.676;2024-01-15T07:02:17;7.27;;;1.43;;
11125;SDS011;5617;54.046;10.676;2024-01-15T07:04:26;10.00;;;1.70;;
11125;SDS011;5617;54.046;10.676;2024-01-15T07:06:35;6.70;;;1.47;;
11125;SDS011;5617;54.046;10.676;2024-01-15T07:08:44;5.57;;;1.27;;
11125;SDS011;5617;54.046;10.676;2024-01-15T07:10:53;9.60;;;1.30;;
11125;SDS011;5617;54.046;10.676;2024-01-15T07:13:03;5.97;;;1.33;;
11125;SDS011;5617;54.046;10.676;2024-01-15T07:15:12;11.60;;;1.77;;
11125;SDS011;5617;54.046;10.676;2024-01-15T07:17:20;10.20;;;1.93;;
11125;SDS011;5617;54.046;10.676;2024-01-15T07:19:28;7.70;;;1.87;;
11125;SDS011;5617;54.046;10.676;2024-01-15T07:21:36;6.47;;;1.73;;
11125;SDS011;5617;54.046;10.676;2024-01-15T07:23:46;10.80;;;2.27;;
11125;SDS011;5617;54.046;10.676;2024-01-15T07:25:55;8.67;;;2.20;;
11125;SDS011;5617;54.046;10.676;2024-01-15T07:28:05;10.90;;;1.73;;
11125;SDS011;5617;54.046;10.676;2024-01-15T07:30:13;12.83;;;1.93;;
11125;SDS011;5617;54.046;10.676;2024-01-15T07:32:22;7.87;;;1.50;;
11125;SDS011;5617;54.046;10.676;2024-01-15T07:34:30;9.27;;;1.90;;
11125;SDS011;5617;54.046;10.676;2024-01-15T07:36:39;6.77;;;1.73;;
11125;SDS011;5617;54.046;10.676;2024-01-15T07:38:47;10.97;;;2.13;;
11125;SDS011;5617;54.046;10.676;2024-01-15T07:40:55;9.43;;;2.17;;
11125;SDS011;5617;54.046;10.676;2024-01-15T07:43:05;10.87;;;2.27;;
11125;SDS011;5617;54.046;10.676;2024-01-15T07:45:14;6.93;;;1.47;;
11125;SDS011;5617;54.046;10.676;2024-01-15T07:47:26;6.90;;;1.90;;
11125;SDS011;5617;54.046;10.676;2024-01-15T07:49:34;7.10;;;2.13;;
11125;SDS011;5617;54.046;10.676;2024-01-15T07:51:43;8.07;;;1.83;;
11125;SDS011;5617;54.046;10.676;2024-01-15T07:53:53;10.83;;;3.43;;
11125;SDS011;5617;54.046;10.676;2024-01-15T07:56:01;6.37;;;1.70;;
11125;SDS011;5617;54.046;10.676;2024-01-15T07:58:11;7.53;;;1.80;;
11125;SDS011;5617;54.046;10.676;2024-01-15T08:00:24;7.73;;;2.10;;
11125;SDS011;5617;54.046;10.676;2024-01-15T08:02:32;8.93;;;1.77;;
11125;SDS011;5617;54.046;10.676;2024-01-15T08:04:45;5.23;;;2.07;;
11125;SDS011;5617;54.046;10.676;2024-01-15T08:06:53;6.77;;;2.00;;
11125;SDS011;5617;54.046;10.676;2024-01-15T08:09:01;5.93;;;1.50;;
11125;SDS011;5617;54.046;10.676;2024-01-15T08:11:11;8.67;;;1.90;;
11125;SDS011;5617;54.046;10.676;2024-01-15T08:13:20;6.80;;;1.90;;
11125;SDS011;5617;54.046;10.676;2024-01-15T08:15:29;7.27;;;1.47;;
11125;SDS011;5617;54.046;10.676;2024-01-15T08:17:38;6.07;;;1.70;;
11125;SDS011;5617;54.046;10.676;2024-01-15T08:19:46;10.80;;;1.77;;
11125;SDS011;5617;54.046;10.676;2024-01-15T08:21:54;4.80;;;1.73;;
11125;SDS011;5617;54.046;10.676;2024-01-15T08:24:03;7.17;;;1.67;;
11125;SDS011;5617;54.046;10.676;2024-01-15T08:26:10;7.37;;;1.80;;
11125;SDS011;5617;54.046;10.676;2024-01-15T08:28:18;6.90;;;1.60;;
11125;SDS011;5617;54.046;10.676;2024-01-15T08:30:28;3.57;;;1.03;;
11125;SDS011;5617;54.046;10.676;2024-01-15T08:32:37;5.70;;;1.57;;
11125;SDS011;5617;54.046;10.676;2024-01-15T08:34:49;8.63;;;1.50;;
11125;SDS011;5617;54.046;10.676;2024-01-15T08:36:59;3.30;;;0.93;;
11125;SDS011;5617;54.046;10.676;2024-01-15T08:39:07;4.53;;;1.23;;
11125;SDS011;5617;54.046;10.676;2024-01-15T08:41:16;10.90;;;3.60;;
11125;SDS011;5617;54.046;10.676;2024-01-15T08:43:27;3.60;;;1.03;;
11125;SDS011;5617;54.046;10.676;2024-01-15T08:45:35;4.73;;;1.00;;
11125;SDS011;5617;54.046;10.676;2024-01-15T08:47:44;6.73;;;0.93;;
11125;SDS011;5617;54.046;10.676;2024-01-15T08:49:55;2.20;;;1.10;;
11125;SDS011;5617;54.046;10.676;2024-01-15T08:52:05;3.70;;;0.60;;
11125;SDS011;5617;54.046;10.676;2024-01-15T08:54:14;1.80;;;0.80;;
11125;SDS011;5617;54.046;10.676;2024-01-15T08:56:22;3.60;;;0.80;;
11125;SDS011;5617;54.046;10.676;2024-01-15T08:58:32;2.97;;;0.77;;
11125;SDS011;5617;54.046;10.676;2024-01-15T09:00:43;2.47;;;0.70;;
11125;SDS011;5617;54.046;10.676;2024-01-15T09:02:52;2.20;;;0.93;;
11125;SDS011;5617;54.046;10.676;2024-01-15T09:05:00;3.70;;;0.70;;
11125;SDS011;5617;54.046;10.676;2024-01-15T09:07:11;0.73;;;0.50;;
11125;SDS011;5617;54.046;10.676;2024-01-15T09:09:19;2.77;;;0.70;;
11125;SDS011;5617;54.046;10.676;2024-01-15T09:11:27;0.50;;;0.50;;
11125;SDS011;5617;54.046;10.676;2024-01-15T09:13:37;2.47;;;0.60;;
11125;SDS011;5617;54.046;10.676;2024-01-15T09:15:46;1.90;;;0.60;;
11125;SDS011;5617;54.046;10.676;2024-01-15T09:17:55;0.77;;;0.53;;
11125;SDS011;5617;54.046;10.676;2024-01-15T09:20:04;2.73;;;0.87;;
11125;SDS011;5617;54.046;10.676;2024-01-15T09:22:13;1.80;;;0.77;;
11125;SDS011;5617;54.046;10.676;2024-01-15T09:24:25;3.17;;;0.60;;
11125;SDS011;5617;54.046;10.676;2024-01-15T09:26:34;4.07;;;0.60;;
11125;SDS011;5617;54.046;10.676;2024-01-15T09:28:44;3.23;;;0.87;;
11125;SDS011;5617;54.046;10.676;2024-01-15T09:30:52;1.03;;;0.50;;
11125;SDS011;5617;54.046;10.676;2024-01-15T09:33:01;1.50;;;0.57;;
11125;SDS011;5617;54.046;10.676;2024-01-15T09:35:09;1.47;;;0.50;;
11125;SDS011;5617;54.046;10.676;2024-01-15T09:37:18;1.63;;;0.63;;
11125;SDS011;5617;54.046;10.676;2024-01-15T09:39:44;1.37;;;0.53;;
11125;SDS011;5617;54.046;10.676;2024-01-15T09:41:55;3.47;;;0.83;;
11125;SDS011;5617;54.046;10.676;2024-01-15T09:44:05;1.73;;;0.80;;
11125;SDS011;5617;54.046;10.676;2024-01-15T09:46:14;0.83;;;0.43;;
11125;SDS011;5617;54.046;10.676;2024-01-15T09:48:24;2.70;;;0.60;;
11125;SDS011;5617;54.046;10.676;2024-01-15T09:50:32;1.43;;;0.50;;
11125;SDS011;5617;54.046;10.676;2024-01-15T09:52:40;1.57;;;0.53;;
11125;SDS011;5617;54.046;10.676;2024-01-15T09:54:50;2.43;;;0.50;;
11125;SDS011;5617;54.046;10.676;2024-01-15T09:56:59;1.30;;;0.60;;
11125;SDS011;5617;54.046;10.676;2024-01-15T09:59:10;1.23;;;0.43;;
11125;SDS011;5617;54.046;10.676;2024-01-15T10:01:17;2.10;;;0.50;;
11125;SDS011;5617;54.046;10.676;2024-01-15T10:03:28;1.53;;;0.60;;
11125;SDS011;5617;54.046;10.676;2024-01-15T10:05:37;1.80;;;0.60;;
11125;SDS011;5617;54.046;10.676;2024-01-15T10:07:46;0.57;;;0.50;;
11125;SDS011;5617;54.046;10.676;2024-01-15T10:09:57;1.33;;;0.40;;
11125;SDS011;5617;54.046;10.676;2024-01-15T10:12:06;1.93;;;0.50;;
11125;SDS011;5617;54.046;10.676;2024-01-15T10:14:16;2.10;;;0.60;;
11125;SDS011;5617;54.046;10.676;2024-01-15T10:16:25;0.63;;;0.40;;
11125;SDS011;5617;54.046;10.676;2024-01-15T10:18:33;0.97;;;0.50;;
11125;SDS011;5617;54.046;10.676;2024-01-15T10:20:42;0.80;;;0.40;;
11125;SDS011;5617;54.046;10.676;2024-01-15T10:22:50;2.07;;;0.70;;
11125;SDS011;5617;54.046;10.676;2024-01-15T10:24:58;1.43;;;0.50;;
11125;SDS011;5617;54.046;10.676;2024-01-15T10:27:07;4.87;;;0.77;;
11125;SDS011;5617;54.046;10.676;2024-01-15T10:29:18;2.03;;;0.70;;
11125;SDS011;5617;54.046;10.676;2024-01-15T10:31:26;1.80;;;0.50;;
11125;SDS011;5617;54.046;10.676;2024-01-15T10:33:36;1.60;;;0.70;;
11125;SDS011;5617;54.046;10.676;2024-01-15T10:35:44;1.03;;;0.47;;
11125;SDS011;5617;54.046;10.676;2024-01-15T10:37:53;1.33;;;0.60;;
11125;SDS011;5617;54.046;10.676;2024-01-15T10:40:01;3.73;;;0.60;;
11125;SDS011;5617;54.046;10.676;2024-01-15T10:42:12;1.60;;;0.50;;
11125;SDS011;5617;54.046;10.676;2024-01-15T10:44:22;2.17;;;0.70;;
11125;SDS011;5617;54.046;10.676;2024-01-15T10:46:30;2.57;;;0.60;;
11125;SDS011;5617;54.046;10.676;2024-01-15T10:48:40;1.27;;;0.70;;
11125;SDS011;5617;54.046;10.676;2024-01-15T10:50:49;2.37;;;1.00;;
11125;SDS011;5617;54.046;10.676;2024-01-15T10:52:57;1.17;;;0.80;;
11125;SDS011;5617;54.046;10.676;2024-01-15T10:55:06;2.37;;;0.70;;
11125;SDS011;5617;54.046;10.676;2024-01-15T10:57:25;2.73;;;0.60;;
11125;SDS011;5617;54.046;10.676;2024-01-15T10:59:36;1.13;;;0.40;;
11125;SDS011;5617;54.046;10.676;2024-01-15T11:01:44;2.97;;;0.60;;
11125;SDS011;5617;54.046;10.676;2024-01-15T11:03:54;2.17;;;0.60;;
11125;SDS011;5617;54.046;10.676;2024-01-15T11:06:08;2.70;;;0.50;;
11125;SDS011;5617;54.046;10.676;2024-01-15T11:08:24;1.47;;;0.47;;
11125;SDS011;5617;54.046;10.676;2024-01-15T11:10:40;1.57;;;0.70;;
11125;SDS011;5617;54.046;10.676;2024-01-15T11:12:49;2.20;;;0.50;;
11125;SDS011;5617;54.046;10.676;2024-01-15T11:15:02;2.40;;;0.60;;
11125;SDS011;5617;54.046;10.676;2024-01-15T11:17:12;3.07;;;0.60;;
11125;SDS011;5617;54.046;10.676;2024-01-15T11:19:24;2.20;;;0.60;;
11125;SDS011;5617;54.046;10.676;2024-01-15T11:21:34;2.07;;;0.63;;
11125;SDS011;5617;54.046;10.676;2024-01-15T11:23:51;1.73;;;0.50;;
11125;SDS011;5617;54.046;10.676;2024-01-15T11:26:04;1.33;;;0.47;;
11125;SDS011;5617;54.046;10.676;2024-01-15T11:31:07;1.97;;;0.50;;
11125;SDS011;5617;54.046;10.676;2024-01-15T11:35:50;2.20;;;0.60;;
11125;SDS011;5617;54.046;10.676;2024-01-15T11:37:58;4.00;;;1.00;;
11125;SDS011;5617;54.046;10.676;2024-01-15T11:40:06;1.57;;;0.60;;
11125;SDS011;5617;54.046;10.676;2024-01-15T11:42:18;1.63;;;0.50;;
11125;SDS011;5617;54.046;10.676;2024-01-15T11:44:28;1.57;;;0.50;;
11125;SDS011;5617;54.046;10.676;2024-01-15T11:46:37;0.50;;;0.40;;
11125;SDS011;5617;54.046;10.676;2024-01-15T11:48:56;1.13;;;0.50;;
11125;SDS011;5617;54.046;10.676;2024-01-15T11:51:12;1.67;;;0.47;;
11125;SDS011;5617;54.046;10.676;2024-01-15T11:53:26;1.00;;;0.57;;
11125;SDS011;5617;54.046;10.676;2024-01-15T11:55:38;0.90;;;0.60;;
11125;SDS011;5617;54.046;10.676;2024-01-15T11:57:51;1.10;;;0.47;;
11125;SDS011;5617;54.046;10.676;2024-01-15T12:00:02;1.20;;;0.57;;
11125;SDS011;5617;54.046;10.676;2024-01-15T12:02:12;2.27;;;0.50;;
11125;SDS011;5617;54.046;10.676;2024-01-15T12:04:21;1.07;;;0.43;;
11125;SDS011;5617;54.046;10.676;2024-01-15T12:06:29;1.53;;;0.50;;
11125;SDS011;5617;54.046;10.676;2024-01-15T12:08:38;3.40;;;0.57;;
11125;SDS011;5617;54.046;10.676;2024-01-15T12:10:45;1.10;;;0.43;;
11125;SDS011;5617;54.046;10.676;2024-01-15T12:12:54;0.37;;;0.33;;
11125;SDS011;5617;54.046;10.676;2024-01-15T12:15:05;0.50;;;0.40;;
11125;SDS011;5617;54.046;10.676;2024-01-15T12:17:16;0.53;;;0.40;;
11125;SDS011;5617;54.046;10.676;2024-01-15T12:19:24;0.80;;;0.57;;
11125;SDS011;5617;54.046;10.676;2024-01-15T12:21:33;1.97;;;0.60;;
11125;SDS011;5617;54.046;10.676;2024-01-15T12:23:41;1.87;;;0.50;;
11125;SDS011;5617;54.046;10.676;2024-01-15T12:25:50;2.87;;;0.60;;
11125;SDS011;5617;54.046;10.676;2024-01-15T12:27:58;0.53;;;0.50;;
11125;SDS011;5617;54.046;10.676;2024-01-15T12:30:11;0.97;;;0.30;;
11125;SDS011;5617;54.046;10.676;2024-01-15T12:32:21;2.00;;;0.40;;
11125;SDS011;5617;54.046;10.676;2024-01-15T12:34:31;0.87;;;0.53;;
11125;SDS011;5617;54.046;10.676;2024-01-15T12:36:39;1.10;;;0.50;;
11125;SDS011;5617;54.046;10.676;2024-01-15T12:38:51;2.53;;;0.77;;
11125;SDS011;5617;54.046;10.676;2024-01-15T12:41:00;1.40;;;0.40;;
11125;SDS011;5617;54.046;10.676;2024-01-15T12:43:09;0.50;;;0.40;;
11125;SDS011;5617;54.046;10.676;2024-01-15T12:45:18;2.17;;;0.60;;
11125;SDS011;5617;54.046;10.676;2024-01-15T12:47:27;1.43;;;0.50;;
11125;SDS011;5617;54.046;10.676;2024-01-15T12:49:36;0.57;;;0.57;;
11125;SDS011;5617;54.046;10.676;2024-01-15T12:51:51;2.00;;;0.57;;
11125;SDS011;5617;54.046;10.676;2024-01-15T12:54:00;1.40;;;0.60;;
11125;SDS011;5617;54.046;10.676;2024-01-15T12:56:08;1.67;;;0.60;;
11125;SDS011;5617;54.046;10.676;2024-01-15T12:58:17;2.40;;;0.50;;
11125;SDS011;5617;54.046;10.676;2024-01-15T13:00:28;1.80;;;0.60;;
11125;SDS011;5617;54.046;10.676;2024-01-15T13:02:38;0.83;;;0.50;;
11125;SDS011;5617;54.046;10.676;2024-01-15T13:04:51;0.93;;;0.50;;